AIC228 VABB-VAAH
Flight info
| Callsign | AIC228 |
|---|---|
| Flight time | N/A |
| Altitude | 31000 |
| Route | ANOLI2A ISRIS G208 APANO APANO1A |
| Aircraft | A21N/M-SDE3FGHIRWY/LB1 |
Departure
| Time | 2026-05-04 10:56 |
|---|---|
| Airport | Chhatrapati Shivaji Maharaj International Airport (VABB) |
Arrival
| Time | N/A |
|---|---|
| Airport | Sardar Vallabh Patel International Airport (VAAH) |
| Time | Latitude | Longitude | Altitude | Speed | Heading |
|---|---|---|---|---|---|
| 2026-05-04 10:33 | 19.09155 | 72.85603 | 33 ft | 0 kts | 359° |
| 2026-05-04 10:40 | 19.09146 | 72.85603 | 33 ft | 2 kts | 7° |
| 2026-05-04 10:40 | 19.09131 | 72.85599 | 32 ft | 2 kts | 24° |
| 2026-05-04 10:40 | 19.09118 | 72.85591 | 32 ft | 2 kts | 38° |
| 2026-05-04 10:40 | 19.09107 | 72.85580 | 31 ft | 2 kts | 53° |
| 2026-05-04 10:41 | 19.09099 | 72.85566 | 30 ft | 2 kts | 68° |
| 2026-05-04 10:41 | 19.09095 | 72.85551 | 30 ft | 2 kts | 82° |
| 2026-05-04 10:41 | 19.09094 | 72.85535 | 30 ft | 1 kts | 91° |
| 2026-05-04 10:41 | 19.09095 | 72.85529 | 30 ft | 0 kts | 90° |
| 2026-05-04 10:42 | 19.09094 | 72.85529 | 30 ft | 0 kts | 90° |
| 2026-05-04 10:42 | 19.09094 | 72.85530 | 30 ft | 0 kts | 90° |
| 2026-05-04 10:49 | 19.09094 | 72.85543 | 30 ft | 3 kts | 90° |
| 2026-05-04 10:49 | 19.09093 | 72.85578 | 30 ft | 4 kts | 110° |
| 2026-05-04 10:50 | 19.09056 | 72.85603 | 29 ft | 8 kts | 151° |
| 2026-05-04 10:51 | 19.09039 | 72.86197 | 32 ft | 15 kts | 90° |
| 2026-05-04 10:52 | 19.09038 | 72.86313 | 32 ft | 16 kts | 90° |
| 2026-05-04 10:52 | 19.09038 | 72.86405 | 32 ft | 17 kts | 90° |
| 2026-05-04 10:52 | 19.09038 | 72.86510 | 32 ft | 18 kts | 90° |
| 2026-05-04 10:54 | 19.09057 | 72.87561 | 29 ft | 21 kts | 89° |
| 2026-05-04 10:54 | 19.09057 | 72.87719 | 30 ft | 21 kts | 90° |
| 2026-05-04 10:56 | 19.08864 | 72.86042 | 44 ft | 175 kts | 270° |
| 2026-05-04 10:56 | 19.08838 | 72.84699 | 508 ft | 189 kts | 268° |
| 2026-05-04 10:56 | 19.08831 | 72.83268 | 1109 ft | 204 kts | 270° |
| 2026-05-04 10:57 | 19.08828 | 72.81819 | 2037 ft | 200 kts | 269° |
| 2026-05-04 10:57 | 19.08808 | 72.80420 | 2894 ft | 198 kts | 269° |
| 2026-05-04 10:57 | 19.08785 | 72.78966 | 3367 ft | 213 kts | 269° |
| 2026-05-04 10:57 | 19.08760 | 72.77371 | 3783 ft | 233 kts | 269° |
| 2026-05-04 10:58 | 19.08735 | 72.75618 | 4201 ft | 253 kts | 269° |
| 2026-05-04 10:58 | 19.08907 | 72.73749 | 4748 ft | 268 kts | 289° |
| 2026-05-04 10:58 | 19.09874 | 72.72176 | 5551 ft | 271 kts | 318° |
| 2026-05-04 10:58 | 19.11468 | 72.71253 | 6421 ft | 272 kts | 346° |
| 2026-05-04 10:59 | 19.13327 | 72.71246 | 7229 ft | 275 kts | 15° |
| 2026-05-04 10:59 | 19.14954 | 72.72165 | 8014 ft | 277 kts | 41° |
| 2026-05-04 10:59 | 19.16391 | 72.73537 | 8804 ft | 282 kts | 37° |
| 2026-05-04 10:59 | 19.18139 | 72.74389 | 9515 ft | 286 kts | 8° |
| 2026-05-04 11:00 | 19.20109 | 72.74460 | 10354 ft | 287 kts | 359° |
| 2026-05-04 11:01 | 19.35590 | 72.74753 | 14891 ft | 337 kts | 8° |
| 2026-05-04 11:02 | 19.37918 | 72.75119 | 15581 ft | 341 kts | 8° |
| 2026-05-04 11:02 | 19.40278 | 72.75490 | 16260 ft | 344 kts | 8° |
| 2026-05-04 11:05 | 19.75724 | 72.80957 | 24260 ft | 389 kts | 8° |
| 2026-05-04 11:06 | 19.78418 | 72.81373 | 24728 ft | 392 kts | 8° |
| 2026-05-04 11:06 | 19.81097 | 72.81786 | 25175 ft | 395 kts | 8° |
| 2026-05-04 11:06 | 19.83829 | 72.82207 | 25616 ft | 398 kts | 8° |
| 2026-05-04 11:06 | 19.86609 | 72.82637 | 26048 ft | 400 kts | 8° |
| 2026-05-04 11:08 | 20.06196 | 72.85663 | 28696 ft | 417 kts | 8° |
| 2026-05-04 11:10 | 20.26799 | 72.88356 | 30894 ft | 432 kts | 7° |
| 2026-05-04 11:12 | 20.47747 | 72.91037 | 31003 ft | 433 kts | 7° |
| 2026-05-04 11:12 | 20.50753 | 72.91422 | 31003 ft | 433 kts | 7° |
| 2026-05-04 11:12 | 20.56751 | 72.92192 | 31003 ft | 433 kts | 7° |
| 2026-05-04 11:13 | 20.62746 | 72.92962 | 31003 ft | 433 kts | 7° |
| 2026-05-04 11:13 | 20.68737 | 72.93732 | 31003 ft | 433 kts | 7° |
| 2026-05-04 11:14 | 20.69734 | 72.93860 | 31003 ft | 433 kts | 7° |
| 2026-05-04 11:16 | 20.98805 | 72.95657 | 31003 ft | 433 kts | 2° |
| 2026-05-04 11:16 | 21.04850 | 72.95922 | 31003 ft | 433 kts | 2° |
| 2026-05-04 11:17 | 21.10816 | 72.96184 | 31003 ft | 433 kts | 2° |